createdAt,value
2022-12-23T00:00:29.683Z,1.90
2022-12-23T00:03:17.281Z,1.90
2022-12-23T00:06:14.589Z,2.00
2022-12-23T00:09:02.078Z,2.00
2022-12-23T00:12:08.136Z,2.10
2022-12-23T00:15:07.591Z,2.10
2022-12-23T00:17:55.072Z,2.20
2022-12-23T00:20:42.699Z,2.20
2022-12-23T00:23:34.503Z,2.30
2022-12-23T00:26:25.737Z,2.20
2022-12-23T00:29:13.258Z,2.30
2022-12-23T00:32:00.791Z,2.20
2022-12-23T00:34:48.414Z,2.30
2022-12-23T00:37:35.907Z,2.30
2022-12-23T00:40:41.995Z,2.20
2022-12-23T00:43:29.540Z,2.30
2022-12-23T00:46:17.806Z,2.30
2022-12-23T00:49:24.820Z,2.30
2022-12-23T00:52:15.780Z,2.30
2022-12-23T00:55:03.536Z,2.50
2022-12-23T00:57:51.533Z,2.60
2022-12-23T01:00:58.325Z,2.70
2022-12-23T01:04:04.381Z,2.80
2022-12-23T01:06:51.951Z,2.80
2022-12-23T01:09:39.616Z,2.90
2022-12-23T01:12:27.450Z,3.00
2022-12-23T01:15:15.110Z,3.10
2022-12-23T01:18:02.608Z,3.10
2022-12-23T01:20:50.140Z,3.20
2022-12-23T01:23:38.406Z,3.10
2022-12-23T01:26:26.616Z,3.20
2022-12-23T01:29:14.281Z,3.10
2022-12-23T01:32:01.847Z,3.20
2022-12-23T01:34:49.451Z,3.10
2022-12-23T01:37:36.956Z,3.10
2022-12-23T01:40:24.530Z,3.00
2022-12-23T01:43:20.223Z,2.90
2022-12-23T01:46:07.735Z,2.80
2022-12-23T01:48:56.780Z,2.80
2022-12-23T01:51:44.389Z,2.70
2022-12-23T01:54:32.772Z,2.70
2022-12-23T01:57:21.047Z,2.60
2022-12-23T02:00:29.121Z,2.60
2022-12-23T02:03:43.123Z,2.70
2022-12-23T02:07:05.103Z,2.60
2022-12-23T02:09:52.729Z,2.60
2022-12-23T02:14:06.474Z,2.60
2022-12-23T02:17:15.793Z,2.60
2022-12-23T02:20:58.421Z,2.70
2022-12-23T02:24:07.735Z,2.70
2022-12-23T02:27:15.424Z,2.70
2022-12-23T02:30:55.646Z,2.70
2022-12-23T02:34:14.916Z,2.70
2022-12-23T02:37:23.892Z,2.70
2022-12-23T02:40:45.156Z,2.80
2022-12-23T02:43:58.710Z,3.00
2022-12-23T02:47:19.894Z,3.20
2022-12-23T02:50:19.940Z,3.30
2022-12-23T02:53:17.890Z,3.50
2022-12-23T02:56:09.029Z,3.50
2022-12-23T02:59:04.879Z,3.50
2022-12-23T03:01:54.956Z,3.40
2022-12-23T03:04:42.869Z,3.40
2022-12-23T03:07:41.863Z,3.30
2022-12-23T03:10:43.817Z,3.20
2022-12-23T03:13:50.047Z,3.10
2022-12-23T03:16:59.158Z,3.10
2022-12-23T03:20:14.504Z,3.00
2022-12-23T03:23:28.514Z,3.00
2022-12-23T03:26:39.237Z,3.00
2022-12-23T03:29:53.942Z,3.00
2022-12-23T03:32:52.674Z,2.90
2022-12-23T03:35:57.186Z,3.00
2022-12-23T03:38:46.180Z,3.00
2022-12-23T03:41:45.740Z,3.00
2022-12-23T03:45:03.663Z,3.00
2022-12-23T03:48:11.871Z,3.00
2022-12-23T03:51:15.099Z,3.00
2022-12-23T03:54:10.291Z,3.00
2022-12-23T03:57:03.911Z,3.00
2022-12-23T03:59:51.875Z,3.00
2022-12-23T04:03:39.270Z,3.00
2022-12-23T04:06:37.594Z,3.00
2022-12-23T04:09:28.850Z,3.00
2022-12-23T04:12:16.548Z,3.00
2022-12-23T04:15:09.115Z,2.90
2022-12-23T04:18:00.318Z,2.90
2022-12-23T04:20:47.780Z,2.90
2022-12-23T04:23:35.332Z,2.90
2022-12-23T04:26:22.895Z,2.90
2022-12-23T04:29:10.424Z,2.90
2022-12-23T04:31:58.269Z,2.80
2022-12-23T04:34:45.854Z,2.80
2022-12-23T04:37:33.514Z,2.80
2022-12-23T04:40:21.143Z,2.80
2022-12-23T04:43:08.626Z,2.80
2022-12-23T04:45:56.329Z,2.80
2022-12-23T04:48:43.860Z,2.80
2022-12-23T04:51:31.361Z,2.80
2022-12-23T04:54:18.915Z,2.90
2022-12-23T04:57:06.488Z,2.90
2022-12-23T04:59:53.929Z,2.90
2022-12-23T05:02:41.532Z,3.00
2022-12-23T05:05:29.044Z,3.00
2022-12-23T05:08:16.552Z,3.00
2022-12-23T05:11:04.238Z,3.00
2022-12-23T05:13:51.830Z,2.90
2022-12-23T05:16:39.595Z,3.00
2022-12-23T05:19:27.155Z,3.00
2022-12-23T05:22:14.855Z,3.00
2022-12-23T05:25:02.328Z,2.90
2022-12-23T05:27:49.814Z,2.90
2022-12-23T05:30:37.350Z,2.80
2022-12-23T05:33:24.838Z,2.80
2022-12-23T05:36:13.326Z,2.90
2022-12-23T05:39:00.806Z,2.90
2022-12-23T05:41:48.276Z,2.90
2022-12-23T05:44:35.794Z,2.90
2022-12-23T05:47:23.302Z,3.00
2022-12-23T05:50:11.187Z,3.00
2022-12-23T05:52:58.820Z,3.10
2022-12-23T05:55:47.234Z,3.10
2022-12-23T05:58:34.780Z,3.10
2022-12-23T06:01:22.305Z,3.10
2022-12-23T06:04:10.011Z,3.20
2022-12-23T06:06:57.695Z,3.20
2022-12-23T06:09:45.242Z,3.20
2022-12-23T06:12:32.867Z,3.20
2022-12-23T06:15:20.390Z,3.20
2022-12-23T06:18:07.993Z,3.10
2022-12-23T06:20:55.548Z,3.10
2022-12-23T06:23:43.026Z,3.00
2022-12-23T06:26:30.661Z,3.00
2022-12-23T06:29:18.159Z,3.00
2022-12-23T06:32:06.212Z,3.00
2022-12-23T06:34:53.915Z,3.00
2022-12-23T06:37:41.586Z,3.00
2022-12-23T06:40:29.831Z,3.00
2022-12-23T06:43:17.815Z,3.00
2022-12-23T06:46:05.713Z,2.90
2022-12-23T06:48:53.640Z,2.90
2022-12-23T06:51:42.036Z,3.00
2022-12-23T06:54:29.607Z,3.00
2022-12-23T06:57:17.117Z,3.00
2022-12-23T07:00:05.773Z,3.00
2022-12-23T07:02:56.467Z,3.10
2022-12-23T07:05:49.159Z,3.10
2022-12-23T07:08:36.775Z,3.10
2022-12-23T07:11:24.374Z,3.10
2022-12-23T07:14:11.919Z,3.10
2022-12-23T07:16:59.482Z,3.20
2022-12-23T07:19:47.051Z,3.20
2022-12-23T07:22:34.634Z,3.20
2022-12-23T07:25:22.352Z,3.20
2022-12-23T07:28:09.923Z,3.20
2022-12-23T07:30:57.451Z,3.20
2022-12-23T07:33:44.941Z,3.30
2022-12-23T07:36:32.473Z,3.30
2022-12-23T07:39:20.827Z,3.30
2022-12-23T07:42:42.822Z,3.30
2022-12-23T07:45:16.725Z,3.30
2022-12-23T07:48:04.362Z,3.40
2022-12-23T07:50:51.920Z,3.40
2022-12-23T07:53:39.557Z,3.40
2022-12-23T07:56:27.495Z,3.40
2022-12-23T07:59:15.127Z,3.50
2022-12-23T08:02:02.840Z,3.50
2022-12-23T08:04:50.640Z,3.50
2022-12-23T08:07:38.267Z,3.60
2022-12-23T08:10:25.875Z,3.70
2022-12-23T08:13:13.436Z,3.70
2022-12-23T08:16:04.664Z,3.70
2022-12-23T08:18:52.282Z,3.80
2022-12-23T08:21:39.813Z,3.80
2022-12-23T08:24:27.289Z,3.80
2022-12-23T08:27:16.375Z,3.90
2022-12-23T08:30:04.483Z,4.00
2022-12-23T08:32:51.994Z,4.00
2022-12-23T08:35:39.593Z,4.00
2022-12-23T08:38:27.187Z,4.10
2022-12-23T08:41:19.960Z,4.10
2022-12-23T08:44:08.008Z,4.10
2022-12-23T08:46:56.293Z,4.20
2022-12-23T08:49:43.798Z,4.20
2022-12-23T08:52:31.320Z,4.30
2022-12-23T08:55:18.805Z,4.30
2022-12-23T08:58:07.269Z,4.30
2022-12-23T09:00:54.778Z,4.30
2022-12-23T09:03:43.894Z,4.20
2022-12-23T09:06:43.527Z,4.20
2022-12-23T09:09:31.021Z,4.30
2022-12-23T09:12:18.535Z,4.30
2022-12-23T09:15:07.175Z,4.40
2022-12-23T09:17:54.593Z,4.40
2022-12-23T09:20:42.140Z,4.60
2022-12-23T09:23:29.745Z,4.70
2022-12-23T09:26:25.531Z,4.90
2022-12-23T09:29:12.987Z,5.00
2022-12-23T09:32:00.644Z,5.10
2022-12-23T09:34:48.182Z,5.10
2022-12-23T09:37:36.306Z,5.10
2022-12-23T09:40:23.839Z,5.10
2022-12-23T09:43:54.466Z,5.20
2022-12-23T09:47:08.085Z,5.20
2022-12-23T09:50:12.729Z,5.30
2022-12-23T09:53:15.429Z,5.30
2022-12-23T09:56:37.894Z,5.30
2022-12-23T09:59:37.719Z,5.30
2022-12-23T10:02:58.596Z,5.40
2022-12-23T10:06:11.127Z,5.60
2022-12-23T10:09:05.058Z,5.70
2022-12-23T10:11:53.504Z,5.70
2022-12-23T10:14:43.625Z,5.80
2022-12-23T10:17:41.682Z,5.80
2022-12-23T10:20:47.274Z,5.90
2022-12-23T10:23:43.061Z,6.00
2022-12-23T10:26:49.615Z,6.00
2022-12-23T10:29:37.680Z,5.90
2022-12-23T10:32:50.566Z,5.90
2022-12-23T10:36:05.263Z,5.90
2022-12-23T10:39:32.487Z,6.00
2022-12-23T10:42:59.543Z,6.20
2022-12-23T10:46:24.608Z,6.30
2022-12-23T10:49:48.611Z,6.50
2022-12-23T10:52:42.246Z,6.50
2022-12-23T10:55:38.555Z,6.60
2022-12-23T10:58:27.327Z,6.70
2022-12-23T11:01:26.091Z,6.80
2022-12-23T11:04:25.058Z,6.90
2022-12-23T11:07:45.666Z,6.80
2022-12-23T11:10:34.320Z,6.90
2022-12-23T11:13:40.095Z,7.10
2022-12-23T11:16:29.091Z,7.20
2022-12-23T11:19:16.912Z,7.20
2022-12-23T11:22:04.405Z,7.30
2022-12-23T11:24:52.566Z,7.40
2022-12-23T11:27:45.627Z,7.30
2022-12-23T11:30:55.521Z,7.30
2022-12-23T11:34:15.560Z,7.00
2022-12-23T11:37:07.188Z,7.10
2022-12-23T11:39:55.498Z,7.10
2022-12-23T11:42:43.465Z,7.20
2022-12-23T11:45:38.030Z,7.30
2022-12-23T11:48:30.863Z,7.40
2022-12-23T11:51:26.976Z,7.40
2022-12-23T11:54:21.485Z,7.30
2022-12-23T11:57:20.348Z,7.20
2022-12-23T12:00:30.440Z,7.20
2022-12-23T12:03:22.761Z,7.10
2022-12-23T12:06:17.234Z,7.10
2022-12-23T12:09:06.852Z,7.00
2022-12-23T12:12:15.438Z,7.00
2022-12-23T12:15:03.197Z,7.00
2022-12-23T12:17:53.434Z,7.00
2022-12-23T12:20:58.368Z,7.00
2022-12-23T12:24:17.240Z,6.90
2022-12-23T12:27:10.463Z,6.90
2022-12-23T12:30:08.493Z,6.80
2022-12-23T12:33:26.141Z,6.80
2022-12-23T12:36:46.577Z,6.90
2022-12-23T12:39:49.935Z,6.90
2022-12-23T12:42:53.370Z,7.00
2022-12-23T12:46:02.476Z,6.90
2022-12-23T12:48:56.398Z,6.90
2022-12-23T12:52:11.576Z,6.80
2022-12-23T12:55:37.317Z,6.80
2022-12-23T12:58:25.227Z,6.90
2022-12-23T13:01:58.641Z,6.90
2022-12-23T13:05:13.530Z,6.90
2022-12-23T13:08:51.205Z,6.90
2022-12-23T13:11:57.015Z,6.90
2022-12-23T13:15:40.582Z,6.90
2022-12-23T13:19:20.199Z,6.90
2022-12-23T13:22:17.687Z,6.90
2022-12-23T13:25:29.686Z,6.90
2022-12-23T13:28:53.905Z,6.90
2022-12-23T13:31:57.307Z,6.90
2022-12-23T13:35:15.657Z,6.90
2022-12-23T13:38:24.521Z,6.90
2022-12-23T13:41:51.776Z,7.00
2022-12-23T13:44:40.916Z,7.00
2022-12-23T13:47:40.239Z,7.00
2022-12-23T13:50:42.893Z,7.00
2022-12-23T13:54:05.357Z,7.00
2022-12-23T13:57:34.678Z,7.00
2022-12-23T14:00:33.126Z,7.10
2022-12-23T14:03:32.083Z,7.00
2022-12-23T14:06:44.753Z,7.00
2022-12-23T14:09:39.139Z,7.00
2022-12-23T14:12:34.379Z,6.90
2022-12-23T14:15:49.109Z,6.90
2022-12-23T14:18:51.651Z,6.90
2022-12-23T14:22:33.524Z,6.90
2022-12-23T14:26:00.502Z,6.90
2022-12-23T14:29:20.593Z,6.90
2022-12-23T14:32:27.023Z,6.90
2022-12-23T14:35:42.889Z,6.80
2022-12-23T14:38:33.214Z,6.80
2022-12-23T14:41:52.684Z,6.80
2022-12-23T14:44:40.104Z,6.80
2022-12-23T14:47:40.596Z,6.80
2022-12-23T14:50:42.059Z,6.80
2022-12-23T14:53:33.487Z,6.80
2022-12-23T14:56:47.357Z,6.70
2022-12-23T15:00:02.403Z,6.70
2022-12-23T15:02:58.368Z,6.60
2022-12-23T15:05:46.672Z,6.60
2022-12-23T15:08:41.195Z,6.50
2022-12-23T15:11:33.151Z,6.50
2022-12-23T15:14:40.103Z,6.40
2022-12-23T15:17:29.262Z,6.40
2022-12-23T15:20:22.729Z,6.40
2022-12-23T15:23:17.098Z,6.30
2022-12-23T15:26:04.895Z,6.30
2022-12-23T15:28:52.608Z,6.20
2022-12-23T15:31:43.082Z,6.30
2022-12-23T15:34:34.436Z,6.30
2022-12-23T15:37:31.566Z,6.20
2022-12-23T15:40:35.334Z,6.10
2022-12-23T15:43:26.182Z,6.10
2022-12-23T15:46:29.004Z,6.20
2022-12-23T15:49:22.025Z,6.20
2022-12-23T15:52:19.695Z,6.30
2022-12-23T15:55:32.306Z,6.30
2022-12-23T15:58:24.701Z,6.30
2022-12-23T16:01:22.263Z,6.30
2022-12-23T16:04:27.196Z,6.30
2022-12-23T16:07:42.536Z,6.30
2022-12-23T16:10:30.057Z,6.40
2022-12-23T16:13:21.024Z,6.30
2022-12-23T16:16:40.429Z,6.30
2022-12-23T16:20:20.464Z,6.30
2022-12-23T16:23:11.964Z,6.30
2022-12-23T16:26:02.245Z,6.30
2022-12-23T16:28:56.553Z,6.30
2022-12-23T16:31:52.037Z,6.30
2022-12-23T16:34:42.002Z,6.30
2022-12-23T16:37:30.195Z,6.30
2022-12-23T16:40:17.736Z,6.40
2022-12-23T16:43:05.697Z,6.40
2022-12-23T16:45:57.391Z,6.50
2022-12-23T16:48:59.000Z,6.50
2022-12-23T16:51:47.219Z,6.50
2022-12-23T16:54:34.859Z,6.50
2022-12-23T16:57:22.375Z,6.50
2022-12-23T17:00:16.716Z,6.50
2022-12-23T17:03:04.773Z,6.50
2022-12-23T17:05:52.222Z,6.50
2022-12-23T17:08:41.035Z,6.40
2022-12-23T17:11:53.426Z,6.40
2022-12-23T17:14:41.015Z,6.30
2022-12-23T17:17:28.701Z,6.30
2022-12-23T17:20:18.037Z,6.30
2022-12-23T17:23:06.653Z,6.30
2022-12-23T17:25:54.467Z,6.30
2022-12-23T17:28:42.253Z,6.30
2022-12-23T17:31:30.048Z,6.20
2022-12-23T17:34:21.809Z,6.20
2022-12-23T17:37:19.617Z,6.30
2022-12-23T17:40:12.523Z,6.30
2022-12-23T17:43:00.034Z,6.30
2022-12-23T17:45:48.183Z,6.20
2022-12-23T17:48:35.920Z,6.30
2022-12-23T17:51:24.057Z,6.30
2022-12-23T17:54:25.437Z,6.30
2022-12-23T17:57:24.352Z,6.20
2022-12-23T18:00:13.383Z,6.30
2022-12-23T18:03:01.033Z,6.30
2022-12-23T18:05:48.596Z,6.20
2022-12-23T18:08:36.096Z,6.20
2022-12-23T18:11:44.204Z,6.30
2022-12-23T18:14:32.052Z,6.20
2022-12-23T18:17:19.775Z,6.20
2022-12-23T18:20:14.368Z,6.20
2022-12-23T18:23:02.093Z,6.10
2022-12-23T18:25:49.854Z,5.90
2022-12-23T18:28:37.437Z,6.00
2022-12-23T18:31:27.362Z,6.00
2022-12-23T18:34:18.221Z,6.00
2022-12-23T18:37:06.084Z,6.10
2022-12-23T18:39:53.602Z,6.10
2022-12-23T18:42:41.230Z,6.20
2022-12-23T18:45:49.147Z,6.30
2022-12-23T18:48:39.954Z,6.30
2022-12-23T18:51:27.524Z,6.30
2022-12-23T18:54:18.392Z,6.30
2022-12-23T18:57:07.452Z,6.30
2022-12-23T18:59:54.932Z,6.40
2022-12-23T19:02:43.331Z,6.30
2022-12-23T19:05:33.183Z,6.20
2022-12-23T19:08:26.662Z,6.20
2022-12-23T19:11:21.082Z,6.20
2022-12-23T19:14:11.899Z,6.20
2022-12-23T19:17:00.168Z,6.20
2022-12-23T19:19:47.738Z,6.30
2022-12-23T19:22:35.343Z,6.40
2022-12-23T19:25:22.893Z,6.30
2022-12-23T19:28:11.069Z,6.20
2022-12-23T19:30:58.644Z,6.30
2022-12-23T19:33:47.744Z,6.40
2022-12-23T19:36:36.760Z,6.50
2022-12-23T19:39:27.045Z,6.50
2022-12-23T19:42:14.569Z,6.50
2022-12-23T19:45:02.075Z,6.50
2022-12-23T19:47:49.626Z,6.50
2022-12-23T19:50:37.327Z,6.50
2022-12-23T19:53:25.947Z,6.50
2022-12-23T19:56:16.325Z,6.50
2022-12-23T19:59:04.114Z,6.60
2022-12-23T20:01:51.778Z,6.50
2022-12-23T20:04:40.454Z,6.50
2022-12-23T20:07:28.024Z,6.50
2022-12-23T20:10:15.517Z,6.50
2022-12-23T20:13:03.086Z,6.40
2022-12-23T20:15:50.630Z,6.30
2022-12-23T20:18:39.002Z,6.30
2022-12-23T20:21:26.589Z,6.20
2022-12-23T20:24:15.889Z,6.20
2022-12-23T20:27:09.312Z,6.20
2022-12-23T20:29:58.730Z,6.20
2022-12-23T20:32:46.256Z,6.20
2022-12-23T20:35:34.055Z,6.20
2022-12-23T20:38:21.659Z,6.20
2022-12-23T20:41:13.509Z,6.20
2022-12-23T20:47:09.409Z,6.10
2022-12-23T20:49:56.870Z,6.10
2022-12-23T20:52:44.509Z,6.00
2022-12-23T20:55:33.729Z,6.00
2022-12-23T20:58:40.017Z,6.00
2022-12-23T21:01:35.306Z,6.10
2022-12-23T21:04:22.993Z,6.10
2022-12-23T21:07:10.819Z,6.10
2022-12-23T21:09:58.567Z,6.10
2022-12-23T21:12:46.056Z,6.10
2022-12-23T21:15:34.033Z,6.10
2022-12-23T21:18:21.591Z,6.00
2022-12-23T21:21:10.084Z,6.00
2022-12-23T21:24:01.240Z,5.90
2022-12-23T21:26:55.470Z,5.80
2022-12-23T21:29:43.735Z,5.80
2022-12-23T21:32:31.531Z,5.80
2022-12-23T21:35:19.271Z,5.80
2022-12-23T21:38:06.771Z,5.80
2022-12-23T21:41:00.887Z,5.80
2022-12-23T21:43:49.853Z,5.90
2022-12-23T21:46:37.354Z,5.90
2022-12-23T21:49:24.916Z,6.10
2022-12-23T21:52:12.652Z,6.10
2022-12-23T21:55:00.206Z,6.10
2022-12-23T21:57:47.785Z,6.10
2022-12-23T22:00:36.345Z,6.20
2022-12-23T22:03:26.617Z,6.50
2022-12-23T22:06:21.399Z,6.80
2022-12-23T22:09:12.656Z,7.20
2022-12-23T22:12:00.326Z,7.60
2022-12-23T22:14:47.982Z,8.10
2022-12-23T22:17:35.580Z,8.30
2022-12-23T22:20:23.288Z,8.40
2022-12-23T22:23:10.839Z,8.60
2022-12-23T22:25:58.365Z,8.60
2022-12-23T22:28:46.160Z,8.60
2022-12-23T22:31:48.361Z,8.60
2022-12-23T22:34:35.938Z,8.60
2022-12-23T22:37:23.414Z,8.50
2022-12-23T22:40:11.487Z,8.50
2022-12-23T22:42:59.066Z,8.50
2022-12-23T22:45:47.039Z,8.50
2022-12-23T22:48:34.803Z,8.40
2022-12-23T22:51:31.370Z,8.50
2022-12-23T22:54:19.043Z,8.50
2022-12-23T22:57:06.621Z,8.50
2022-12-23T22:59:54.170Z,8.60
2022-12-23T23:02:41.726Z,8.70
2022-12-23T23:05:29.330Z,8.70
2022-12-23T23:08:17.549Z,8.70
2022-12-23T23:11:05.653Z,8.70
2022-12-23T23:13:54.566Z,8.70
2022-12-23T23:16:43.582Z,8.90
2022-12-23T23:19:31.299Z,8.90
2022-12-23T23:22:22.570Z,8.90
2022-12-23T23:25:10.500Z,9.00
2022-12-23T23:27:58.308Z,9.00
2022-12-23T23:30:45.969Z,9.10
2022-12-23T23:33:33.593Z,9.10
2022-12-23T23:36:21.317Z,9.20
2022-12-23T23:39:11.083Z,9.30
2022-12-23T23:41:59.027Z,9.30
2022-12-23T23:44:46.610Z,9.30
2022-12-23T23:47:34.966Z,9.30
2022-12-23T23:50:22.773Z,9.40
2022-12-23T23:53:12.370Z,9.30
2022-12-23T23:56:07.271Z,9.40
2022-12-23T23:58:55.505Z,9.40
